createdAt,value
2023-02-22T00:00:43.887Z,99.90
2023-02-22T00:03:16.791Z,99.90
2023-02-22T00:05:47.083Z,99.90
2023-02-22T00:08:15.466Z,99.90
2023-02-22T00:10:43.255Z,99.90
2023-02-22T00:13:14.292Z,99.90
2023-02-22T00:15:42.403Z,99.90
2023-02-22T00:18:12.964Z,99.90
2023-02-22T00:20:42.332Z,99.90
2023-02-22T00:23:14.784Z,99.90
2023-02-22T00:25:42.559Z,99.90
2023-02-22T00:28:10.301Z,99.90
2023-02-22T00:30:38.143Z,99.90
2023-02-22T00:33:06.389Z,99.90
2023-02-22T00:35:34.167Z,99.90
2023-02-22T00:38:04.463Z,99.90
2023-02-22T00:40:34.144Z,99.90
2023-02-22T00:43:03.945Z,99.90
2023-02-22T00:45:33.406Z,99.90
2023-02-22T00:48:02.216Z,99.90
2023-02-22T00:50:31.567Z,99.90
2023-02-22T00:53:01.278Z,99.90
2023-02-22T00:55:32.564Z,99.90
2023-02-22T00:58:02.305Z,99.90
2023-02-22T01:00:32.556Z,99.90
2023-02-22T01:03:00.910Z,99.90
2023-02-22T01:05:30.962Z,99.90
2023-02-22T01:08:01.056Z,99.90
2023-02-22T01:10:32.051Z,99.90
2023-02-22T01:13:01.370Z,99.90
2023-02-22T01:15:30.966Z,99.90
2023-02-22T01:18:00.896Z,99.90
2023-02-22T01:20:30.095Z,99.90
2023-02-22T01:22:59.312Z,99.90
2023-02-22T01:25:30.546Z,99.90
2023-02-22T01:28:00.030Z,99.90
2023-02-22T01:30:30.136Z,99.90
2023-02-22T01:32:58.563Z,99.90
2023-02-22T01:35:47.500Z,99.90
2023-02-22T01:38:15.299Z,99.90
2023-02-22T01:40:48.210Z,99.90
2023-02-22T01:43:20.177Z,99.90
2023-02-22T01:45:57.098Z,99.90
2023-02-22T01:48:30.670Z,99.90
2023-02-22T01:51:02.111Z,99.90
2023-02-22T01:53:34.168Z,99.90
2023-02-22T01:56:04.085Z,99.90
2023-02-22T01:58:35.032Z,99.90
2023-02-22T02:01:02.876Z,99.90
2023-02-22T02:03:34.712Z,99.90
2023-02-22T02:06:06.239Z,99.90
2023-02-22T02:08:39.984Z,99.90
2023-02-22T02:11:10.545Z,99.90
2023-02-22T02:13:38.328Z,99.90
2023-02-22T02:16:06.611Z,99.90
2023-02-22T02:18:34.352Z,99.90
2023-02-22T02:21:36.070Z,99.90
2023-02-22T02:24:35.553Z,99.90
2023-02-22T02:27:19.992Z,99.90
2023-02-22T02:30:21.964Z,99.90
2023-02-22T02:32:55.327Z,99.90
2023-02-22T02:35:33.132Z,99.90
2023-02-22T02:38:08.438Z,99.90
2023-02-22T02:40:47.255Z,99.90
2023-02-22T02:43:20.833Z,99.90
2023-02-22T02:45:53.848Z,99.90
2023-02-22T02:48:27.109Z,99.90
2023-02-22T02:50:58.397Z,99.90
2023-02-22T02:53:31.768Z,99.90
2023-02-22T02:55:59.991Z,99.90
2023-02-22T02:58:28.254Z,99.90
2023-02-22T03:00:59.407Z,99.90
2023-02-22T03:03:48.361Z,99.90
2023-02-22T03:06:35.733Z,99.90
2023-02-22T03:09:14.638Z,99.90
2023-02-22T03:11:52.697Z,99.90
2023-02-22T03:14:28.246Z,99.90
2023-02-22T03:17:05.484Z,99.90
2023-02-22T03:19:39.414Z,99.90
2023-02-22T03:22:13.989Z,99.90
2023-02-22T03:24:52.907Z,99.90
2023-02-22T03:27:27.953Z,99.90
2023-02-22T03:30:00.295Z,99.90
2023-02-22T03:32:36.122Z,99.90
2023-02-22T03:35:08.836Z,99.90
2023-02-22T03:37:41.226Z,99.90
2023-02-22T03:40:15.042Z,99.90
2023-02-22T03:42:46.244Z,99.90
2023-02-22T03:45:16.527Z,99.90
2023-02-22T03:47:50.227Z,99.90
2023-02-22T03:50:25.246Z,99.90
2023-02-22T03:52:54.322Z,99.90
2023-02-22T03:55:23.667Z,99.90
2023-02-22T03:57:54.161Z,99.90
2023-02-22T04:00:24.561Z,99.90
2023-02-22T04:02:52.417Z,99.90
2023-02-22T04:05:21.940Z,99.90
2023-02-22T04:07:49.682Z,99.90
2023-02-22T04:10:17.817Z,99.90
2023-02-22T04:12:45.626Z,99.90
2023-02-22T04:15:15.977Z,99.90
2023-02-22T04:17:43.770Z,99.90
2023-02-22T04:20:13.532Z,99.90
2023-02-22T04:22:42.642Z,99.90
2023-02-22T04:25:10.417Z,99.90
2023-02-22T04:27:38.130Z,99.90
2023-02-22T04:30:06.323Z,99.90
2023-02-22T04:32:34.054Z,99.90
2023-02-22T04:35:01.793Z,99.90
2023-02-22T04:37:29.519Z,99.90
2023-02-22T04:39:58.722Z,99.90
2023-02-22T04:42:26.472Z,99.90
2023-02-22T04:44:54.814Z,99.90
2023-02-22T04:47:22.514Z,99.90
2023-02-22T04:49:50.319Z,99.90
2023-02-22T04:52:18.336Z,99.90
2023-02-22T04:54:46.607Z,99.90
2023-02-22T04:57:15.653Z,99.90
2023-02-22T04:59:43.362Z,99.90
2023-02-22T05:02:11.106Z,99.90
2023-02-22T05:04:40.010Z,99.90
2023-02-22T05:07:07.745Z,99.90
2023-02-22T05:09:35.487Z,99.90
2023-02-22T05:12:03.253Z,99.90
2023-02-22T05:14:32.286Z,99.90
2023-02-22T05:17:00.915Z,99.90
2023-02-22T05:19:28.634Z,99.90
2023-02-22T05:21:57.558Z,99.90
2023-02-22T05:24:25.285Z,99.90
2023-02-22T05:26:53.691Z,99.90
2023-02-22T05:29:21.582Z,99.90
2023-02-22T05:31:50.654Z,99.90
2023-02-22T05:34:18.491Z,99.90
2023-02-22T05:36:46.404Z,99.90
2023-02-22T05:39:14.113Z,99.90
2023-02-22T05:41:41.836Z,99.90
2023-02-22T05:44:09.530Z,99.90
2023-02-22T05:46:37.323Z,99.90
2023-02-22T05:49:06.477Z,99.90
2023-02-22T05:51:34.485Z,99.90
2023-02-22T05:54:02.193Z,99.90
2023-02-22T05:56:31.113Z,99.90
2023-02-22T05:58:59.561Z,99.90
2023-02-22T06:01:27.983Z,99.90
2023-02-22T06:03:55.909Z,99.90
2023-02-22T06:06:24.934Z,99.90
2023-02-22T06:08:52.632Z,99.90
2023-02-22T06:11:20.441Z,99.90
2023-02-22T06:13:52.034Z,99.90
2023-02-22T06:16:20.972Z,99.90
2023-02-22T06:18:48.910Z,99.90
2023-02-22T06:21:17.479Z,99.90
2023-02-22T06:23:46.798Z,99.90
2023-02-22T06:26:17.262Z,99.90
2023-02-22T06:28:45.004Z,99.90
2023-02-22T06:31:12.802Z,99.90
2023-02-22T06:33:40.520Z,99.90
2023-02-22T06:36:09.601Z,99.90
2023-02-22T06:38:37.285Z,99.90
2023-02-22T06:41:06.567Z,99.90
2023-02-22T06:43:34.230Z,99.90
2023-02-22T06:46:02.000Z,99.90
2023-02-22T06:48:29.706Z,99.90
2023-02-22T06:50:57.472Z,99.90
2023-02-22T06:53:25.434Z,99.90
2023-02-22T06:55:54.970Z,99.90
2023-02-22T06:58:24.065Z,99.90
2023-02-22T07:00:51.968Z,99.90
2023-02-22T07:03:19.960Z,99.90
2023-02-22T07:05:47.766Z,99.90
2023-02-22T07:08:15.495Z,99.90
2023-02-22T07:10:43.204Z,99.90
2023-02-22T07:13:10.897Z,99.90
2023-02-22T07:15:39.928Z,99.90
2023-02-22T07:18:08.382Z,99.90
2023-02-22T07:20:36.257Z,99.90
2023-02-22T07:23:04.310Z,99.90
2023-02-22T07:25:32.211Z,99.90
2023-02-22T07:28:00.486Z,99.90
2023-02-22T07:30:31.044Z,99.90
2023-02-22T07:33:01.871Z,99.90
2023-02-22T07:35:32.509Z,99.90
2023-02-22T07:38:00.632Z,99.90
2023-02-22T07:40:28.895Z,99.90
2023-02-22T07:42:59.384Z,99.90
2023-02-22T07:45:30.149Z,99.90
2023-02-22T07:48:00.013Z,99.90
2023-02-22T07:50:30.125Z,99.90
2023-02-22T07:52:59.553Z,99.90
2023-02-22T07:55:30.240Z,99.90
2023-02-22T07:57:59.530Z,99.90
2023-02-22T08:00:29.378Z,99.90
2023-02-22T08:02:57.789Z,99.90
2023-02-22T08:05:29.218Z,99.90
2023-02-22T08:07:57.379Z,99.90
2023-02-22T08:10:26.567Z,99.90
2023-02-22T08:12:57.105Z,99.90
2023-02-22T08:15:27.386Z,99.90
2023-02-22T08:17:55.646Z,99.90
2023-02-22T08:20:23.587Z,99.90
2023-02-22T08:22:53.330Z,99.90
2023-02-22T08:25:23.181Z,99.90
2023-02-22T08:27:50.973Z,99.90
2023-02-22T08:30:21.489Z,99.90
2023-02-22T08:32:50.260Z,99.90
2023-02-22T08:35:22.336Z,99.90
2023-02-22T08:37:53.582Z,99.90
2023-02-22T08:40:23.383Z,99.90
2023-02-22T08:42:51.241Z,99.90
2023-02-22T08:45:19.772Z,99.90
2023-02-22T08:47:48.066Z,99.90
2023-02-22T08:50:18.994Z,99.90
2023-02-22T08:52:46.806Z,99.90
2023-02-22T08:55:16.054Z,99.90
2023-02-22T08:57:43.780Z,99.90
2023-02-22T09:00:12.986Z,99.90
2023-02-22T09:02:41.526Z,99.90
2023-02-22T09:05:09.565Z,99.90
2023-02-22T09:07:38.401Z,99.90
2023-02-22T09:10:06.965Z,99.90
2023-02-22T09:12:36.076Z,99.90
2023-02-22T09:15:03.865Z,99.90
2023-02-22T09:17:31.586Z,99.90
2023-02-22T09:20:00.407Z,99.90
2023-02-22T09:22:28.141Z,99.90
2023-02-22T09:24:58.450Z,99.90
2023-02-22T09:27:28.191Z,99.90
2023-02-22T09:29:57.351Z,99.90
2023-02-22T09:32:27.709Z,99.90
2023-02-22T09:34:55.944Z,99.90
2023-02-22T09:37:24.042Z,99.90
2023-02-22T09:39:52.196Z,99.90
2023-02-22T09:42:29.419Z,99.90
2023-02-22T09:45:05.926Z,99.90
2023-02-22T09:47:40.760Z,99.90
2023-02-22T09:50:15.635Z,99.90
2023-02-22T09:52:54.903Z,99.90
2023-02-22T09:55:34.113Z,99.90
2023-02-22T09:58:04.430Z,99.90
2023-02-22T10:00:37.962Z,99.90
2023-02-22T10:03:21.066Z,99.90
2023-02-22T10:05:56.926Z,99.90
2023-02-22T10:08:31.181Z,99.90
2023-02-22T10:11:10.289Z,99.90
2023-02-22T10:13:48.585Z,99.90
2023-02-22T10:16:23.914Z,99.90
2023-02-22T10:19:15.227Z,99.90
2023-02-22T10:21:57.532Z,99.90
2023-02-22T10:24:42.177Z,99.90
2023-02-22T10:27:17.064Z,99.90
2023-02-22T10:29:49.271Z,99.90
2023-02-22T10:32:22.689Z,99.90
2023-02-22T10:34:52.698Z,99.90
2023-02-22T10:37:26.412Z,99.90
2023-02-22T10:40:00.491Z,99.90
2023-02-22T10:42:30.441Z,99.90
2023-02-22T10:44:58.185Z,99.90
2023-02-22T10:47:27.958Z,99.90
2023-02-22T10:50:00.411Z,99.90
2023-02-22T10:52:31.085Z,99.90
2023-02-22T10:55:14.139Z,99.90
2023-02-22T10:57:45.246Z,99.90
2023-02-22T11:00:20.311Z,99.90
2023-02-22T11:02:55.967Z,99.90
2023-02-22T11:05:33.011Z,99.90
2023-02-22T11:08:26.782Z,99.90
2023-02-22T11:10:56.537Z,99.90
2023-02-22T11:13:31.054Z,99.90
2023-02-22T11:16:03.074Z,99.90
2023-02-22T11:18:35.164Z,99.90
2023-02-22T11:21:06.131Z,99.90
2023-02-22T11:23:34.776Z,99.90
2023-02-22T11:26:09.101Z,99.90
2023-02-22T11:28:38.261Z,99.90
2023-02-22T11:31:18.708Z,99.90
2023-02-22T11:36:37.182Z,99.90
2023-02-22T11:39:11.370Z,99.90
2023-02-22T11:41:39.525Z,99.90
2023-02-22T11:44:22.039Z,99.90
2023-02-22T11:46:50.766Z,99.90
2023-02-22T11:49:20.075Z,99.90
2023-02-22T11:52:06.589Z,99.90
2023-02-22T11:54:45.095Z,99.90
2023-02-22T11:57:24.469Z,99.90
2023-02-22T12:00:15.965Z,99.90
2023-02-22T12:03:02.767Z,99.90
2023-02-22T12:05:45.509Z,99.90
2023-02-22T12:08:25.261Z,99.90
2023-02-22T12:11:03.372Z,99.90
2023-02-22T12:13:41.030Z,99.90
2023-02-22T12:16:19.787Z,99.90
2023-02-22T12:19:05.913Z,99.90
2023-02-22T12:21:37.112Z,99.90
2023-02-22T12:24:09.197Z,99.90
2023-02-22T12:26:41.217Z,99.90
2023-02-22T12:29:15.046Z,99.90
2023-02-22T12:31:46.461Z,99.90
2023-02-22T12:34:27.135Z,99.90
2023-02-22T12:37:01.469Z,99.90
2023-02-22T12:39:52.304Z,99.90
2023-02-22T12:42:26.917Z,99.90
2023-02-22T12:44:59.104Z,99.90
2023-02-22T12:47:35.394Z,99.90
2023-02-22T12:50:13.329Z,99.90
2023-02-22T12:52:48.732Z,99.90
2023-02-22T12:55:21.280Z,99.90
2023-02-22T12:57:54.930Z,99.90
2023-02-22T13:00:28.582Z,99.90
2023-02-22T13:03:01.619Z,99.90
2023-02-22T13:05:35.990Z,99.90
2023-02-22T13:08:26.381Z,99.90
2023-02-22T13:11:11.416Z,99.90
2023-02-22T13:13:53.561Z,99.90
2023-02-22T13:16:29.738Z,99.90
2023-02-22T13:19:04.492Z,99.90
2023-02-22T13:21:43.155Z,99.60
2023-02-22T13:24:24.144Z,99.90
2023-02-22T13:26:55.178Z,99.90
2023-02-22T13:29:29.752Z,99.90
2023-02-22T13:32:12.835Z,99.20
2023-02-22T13:34:59.108Z,98.30
2023-02-22T13:37:45.696Z,99.10
2023-02-22T13:40:43.791Z,98.80
2023-02-22T13:43:54.607Z,98.50
2023-02-22T13:46:59.522Z,99.00
2023-02-22T13:49:47.036Z,98.20
2023-02-22T13:52:19.045Z,98.90
2023-02-22T13:54:51.383Z,98.50
2023-02-22T13:57:23.997Z,97.60
2023-02-22T14:00:23.793Z,96.90
2023-02-22T14:03:02.389Z,96.50
2023-02-22T14:05:49.716Z,96.80
2023-02-22T14:08:43.134Z,96.90
2023-02-22T14:11:42.956Z,96.70
2023-02-22T14:14:17.714Z,96.80
2023-02-22T14:16:45.781Z,97.50
2023-02-22T14:19:17.650Z,99.00
2023-02-22T14:22:01.821Z,98.50
2023-02-22T14:24:31.490Z,97.60
2023-02-22T14:27:02.202Z,98.60
2023-02-22T14:29:32.073Z,97.90
2023-02-22T14:32:07.574Z,97.60
2023-02-22T14:34:44.333Z,97.30
2023-02-22T14:37:17.261Z,97.70
2023-02-22T14:39:50.138Z,97.60
2023-02-22T14:42:22.751Z,97.40
2023-02-22T14:44:58.162Z,97.90
2023-02-22T14:47:31.190Z,97.60
2023-02-22T14:50:06.352Z,97.60
2023-02-22T14:52:40.444Z,97.70
2023-02-22T14:55:21.256Z,97.50
2023-02-22T14:58:01.245Z,97.00
2023-02-22T15:00:41.762Z,96.60
2023-02-22T15:03:19.943Z,96.50
2023-02-22T15:05:49.613Z,96.90
2023-02-22T15:08:18.938Z,96.60
2023-02-22T15:10:48.072Z,96.60
2023-02-22T15:13:19.559Z,97.10
2023-02-22T15:15:50.363Z,97.90
2023-02-22T15:18:25.340Z,98.10
2023-02-22T15:20:57.679Z,98.00
2023-02-22T15:23:30.192Z,97.80
2023-02-22T15:25:58.819Z,98.20
2023-02-22T15:28:30.850Z,98.50
2023-02-22T15:31:25.679Z,98.70
2023-02-22T15:33:55.406Z,99.20
2023-02-22T15:36:27.698Z,99.30
2023-02-22T15:38:56.802Z,99.50
2023-02-22T15:41:28.691Z,99.50
2023-02-22T15:44:05.444Z,99.50
2023-02-22T15:46:37.229Z,99.40
2023-02-22T15:49:09.184Z,99.30
2023-02-22T15:51:40.337Z,99.20
2023-02-22T15:54:15.683Z,99.00
2023-02-22T15:56:56.487Z,99.20
2023-02-22T15:59:30.327Z,99.30
2023-02-22T16:02:00.381Z,99.20
2023-02-22T16:04:31.027Z,99.20
2023-02-22T16:07:08.035Z,99.00
2023-02-22T16:09:35.776Z,99.20
2023-02-22T16:12:11.429Z,99.10
2023-02-22T16:14:44.862Z,99.50
2023-02-22T16:17:29.540Z,99.40
2023-02-22T16:19:58.648Z,99.20
2023-02-22T16:22:33.749Z,99.10
2023-02-22T16:25:17.103Z,99.30
2023-02-22T16:27:48.250Z,99.40
2023-02-22T16:30:26.069Z,99.40
2023-02-22T16:32:56.861Z,99.20
2023-02-22T16:35:28.718Z,99.40
2023-02-22T16:38:00.305Z,99.40
2023-02-22T16:40:32.339Z,99.70
2023-02-22T16:43:02.439Z,99.90
2023-02-22T16:45:30.222Z,99.90
2023-02-22T16:48:00.257Z,99.90
2023-02-22T16:50:27.968Z,99.90
2023-02-22T16:52:58.536Z,99.90
2023-02-22T16:55:26.643Z,99.90
2023-02-22T16:58:00.852Z,99.90
2023-02-22T17:00:31.985Z,99.90
2023-02-22T17:03:03.843Z,99.90
2023-02-22T17:05:32.418Z,99.90
2023-02-22T17:08:00.182Z,99.90
2023-02-22T17:10:28.947Z,99.90
2023-02-22T17:12:57.354Z,99.90
2023-02-22T17:15:27.157Z,99.90
2023-02-22T17:17:56.885Z,99.90
2023-02-22T17:20:30.808Z,99.90
2023-02-22T17:22:59.592Z,99.90
2023-02-22T17:25:29.579Z,99.90
2023-02-22T17:27:58.058Z,99.90
2023-02-22T17:30:26.021Z,99.90
2023-02-22T17:32:55.945Z,99.90
2023-02-22T17:35:26.912Z,99.90
2023-02-22T17:37:54.609Z,99.90
2023-02-22T17:40:22.377Z,99.90
2023-02-22T17:42:54.778Z,99.90
2023-02-22T17:45:24.155Z,99.90
2023-02-22T17:47:53.011Z,99.90
2023-02-22T17:50:21.475Z,99.90
2023-02-22T17:52:53.416Z,99.90
2023-02-22T17:55:23.073Z,99.90
2023-02-22T17:57:58.150Z,99.90
2023-02-22T18:00:32.971Z,99.90
2023-02-22T18:03:02.527Z,99.90
2023-02-22T18:05:32.992Z,99.90
2023-02-22T18:08:02.060Z,99.90
2023-02-22T18:10:29.776Z,99.90
2023-02-22T18:13:01.841Z,99.90
2023-02-22T18:15:30.069Z,99.90
2023-02-22T18:17:58.002Z,99.90
2023-02-22T18:20:31.061Z,99.90
2023-02-22T18:22:59.906Z,99.90
2023-02-22T18:25:29.018Z,99.90
2023-02-22T18:27:56.761Z,99.90
2023-02-22T18:30:24.957Z,99.90
2023-02-22T18:32:52.908Z,99.90
2023-02-22T18:35:20.633Z,99.90
2023-02-22T18:37:48.523Z,99.90
2023-02-22T18:40:18.891Z,99.90
2023-02-22T18:42:47.965Z,99.90
2023-02-22T18:45:15.690Z,99.90
2023-02-22T18:47:45.503Z,99.90
2023-02-22T18:50:17.105Z,99.90
2023-02-22T18:52:48.286Z,99.90
2023-02-22T18:55:17.445Z,99.90
2023-02-22T18:57:45.495Z,99.90
2023-02-22T19:00:16.621Z,99.90
2023-02-22T19:02:44.491Z,99.90
2023-02-22T19:05:17.283Z,99.90
2023-02-22T19:07:45.154Z,99.90
2023-02-22T19:10:13.059Z,99.90
2023-02-22T19:12:40.751Z,99.90
2023-02-22T19:15:11.745Z,99.90
2023-02-22T19:17:42.772Z,99.90
2023-02-22T19:20:11.187Z,99.90
2023-02-22T19:22:39.263Z,99.90
2023-02-22T19:25:07.819Z,99.90
2023-02-22T19:27:35.630Z,99.90
2023-02-22T19:30:04.564Z,99.90
2023-02-22T19:32:33.662Z,99.90
2023-02-22T19:35:02.957Z,99.90
2023-02-22T19:37:33.894Z,99.90
2023-02-22T19:40:02.699Z,99.90
2023-02-22T19:42:30.923Z,99.90
2023-02-22T19:44:58.874Z,99.90
2023-02-22T19:47:26.574Z,99.90
2023-02-22T19:49:57.146Z,99.90
2023-02-22T19:52:28.869Z,99.90
2023-02-22T19:54:56.740Z,99.90
2023-02-22T19:57:24.818Z,99.90
2023-02-22T19:59:55.022Z,99.90
2023-02-22T20:02:27.120Z,99.90
2023-02-22T20:04:55.243Z,99.90
2023-02-22T20:07:22.950Z,99.90
2023-02-22T20:09:52.031Z,99.90
2023-02-22T20:12:19.909Z,99.90
2023-02-22T20:14:47.618Z,99.90
2023-02-22T20:17:15.322Z,99.90
2023-02-22T20:19:43.106Z,99.90
2023-02-22T20:22:11.207Z,99.90
2023-02-22T20:24:39.142Z,99.90
2023-02-22T20:27:09.076Z,99.90
2023-02-22T20:29:36.941Z,99.90
2023-02-22T20:32:05.549Z,99.90
2023-02-22T20:34:34.046Z,99.90
2023-02-22T20:37:02.684Z,99.90
2023-02-22T20:39:30.816Z,99.90
2023-02-22T20:42:00.393Z,99.90
2023-02-22T20:44:30.031Z,99.90
2023-02-22T20:46:57.858Z,99.90
2023-02-22T20:49:27.109Z,99.90
2023-02-22T20:51:54.895Z,99.90
2023-02-22T20:54:22.683Z,99.90
2023-02-22T20:56:52.637Z,99.90
2023-02-22T20:59:21.466Z,99.90
2023-02-22T21:01:52.940Z,99.90
2023-02-22T21:04:22.162Z,99.90
2023-02-22T21:06:49.941Z,99.90
2023-02-22T21:09:19.761Z,99.90
2023-02-22T21:11:47.642Z,99.90
2023-02-22T21:14:18.672Z,99.90
2023-02-22T21:16:47.968Z,99.90
2023-02-22T21:19:25.172Z,99.90
2023-02-22T21:21:54.906Z,99.90
2023-02-22T21:24:23.669Z,99.90
2023-02-22T21:26:52.047Z,99.90
2023-02-22T21:29:20.204Z,99.90
2023-02-22T21:31:48.136Z,99.90
2023-02-22T21:34:18.060Z,99.90
2023-02-22T21:36:46.426Z,99.90
2023-02-22T21:39:19.058Z,99.90
2023-02-22T21:41:47.788Z,99.90
2023-02-22T21:44:16.053Z,99.90
2023-02-22T21:46:44.020Z,99.90
2023-02-22T21:49:12.743Z,99.90
2023-02-22T21:51:43.551Z,99.90
2023-02-22T21:54:12.846Z,99.90
2023-02-22T21:56:42.762Z,99.90
2023-02-22T21:59:13.335Z,99.90
2023-02-22T22:01:46.890Z,99.90
2023-02-22T22:04:18.670Z,99.90
2023-02-22T22:06:48.937Z,99.90
2023-02-22T22:09:19.513Z,99.90
2023-02-22T22:11:49.505Z,99.90
2023-02-22T22:14:17.942Z,99.90
2023-02-22T22:16:47.805Z,99.90
2023-02-22T22:19:15.537Z,99.90
2023-02-22T22:21:43.317Z,99.90
2023-02-22T22:24:12.449Z,99.90
2023-02-22T22:26:40.364Z,99.90
2023-02-22T22:29:10.141Z,99.90
2023-02-22T22:31:38.570Z,99.90
2023-02-22T22:34:07.111Z,99.90
2023-02-22T22:36:36.406Z,99.90
2023-02-22T22:39:12.903Z,99.90
2023-02-22T22:41:44.044Z,99.90
2023-02-22T22:44:12.107Z,99.90
2023-02-22T22:46:40.302Z,99.90
2023-02-22T22:49:09.071Z,99.90
2023-02-22T22:51:37.578Z,99.90
2023-02-22T22:54:06.537Z,99.90
2023-02-22T22:56:36.000Z,99.90
2023-02-22T22:59:08.233Z,99.90
2023-02-22T23:01:40.314Z,99.90
2023-02-22T23:04:10.093Z,99.90
2023-02-22T23:06:40.148Z,99.90
2023-02-22T23:09:11.755Z,99.90
2023-02-22T23:11:44.324Z,99.90
2023-02-22T23:14:15.772Z,99.90
2023-02-22T23:16:44.958Z,99.90
2023-02-22T23:19:15.361Z,99.90
2023-02-22T23:21:44.157Z,99.90
2023-02-22T23:24:15.130Z,99.90
2023-02-22T23:26:48.247Z,99.90
2023-02-22T23:29:18.408Z,99.90
2023-02-22T23:31:48.304Z,99.90
2023-02-22T23:34:16.905Z,99.90
2023-02-22T23:36:45.016Z,99.90
2023-02-22T23:39:14.094Z,99.90
2023-02-22T23:41:42.421Z,99.90
2023-02-22T23:44:16.706Z,99.90
2023-02-22T23:46:48.033Z,99.90
2023-02-22T23:49:19.956Z,99.90
2023-02-22T23:51:48.123Z,99.90
2023-02-22T23:54:19.208Z,99.90
2023-02-22T23:56:56.093Z,99.90
2023-02-22T23:59:24.607Z,99.90
